Latest Weather Observations for Parkes Airport

IDN60801

Issued at 9:03 am EDT Friday 24 November 2017 (issued every 30 minutes, with the page automatically refreshed every 10 minutes)

About weather observations | Map of weather stations | Latest weather observations for NSW | Other Formats
Station Details ID: 065068 Name: PARKES AIRPORT AWS Lat: -33.13 Lon: 148.24 Height: 323.3 m
Data from the previous 72 hours. | See also: Recent months at Parkes Airport
Date/Time
EDT
Temp
°C
App
Temp
°C
Dew
Point
°C
Rel
Hum
%
Delta-T
°C
Wind Press
QNH
hPa
Press
MSL
hPa
Rain since
9am
mm
Dir  Spd
km/h
Gust
km/h
Spd
kts
Gust
kts
24/09:00am 25.8 22.1 10.0 37 8.9 N 20 24 11 13 1017.2 1016.1 0.0
24/08:30am 24.6 21.4 10.1 40 8.1 NNE 17 24 9 13 1017.1 1016.0 0.0
24/08:00am 23.0 19.3 10.1 44 7.1 NNE 20 26 11 14 1016.8 1015.7 0.0
24/07:30am 22.0 19.3 10.5 48 6.4 NNE 15 22 8 12 1016.5 1015.4 0.0
24/07:00am 19.9 17.6 10.6 55 5.1 NNE 13 19 7 10 1016.3 1015.2 0.0
24/06:30am 18.6 15.9 10.4 59 4.5 NNE 15 19 8 10 1016.1 1015.0 0.0
24/06:00am 17.7 15.3 10.1 61 4.1 NNE 13 17 7 9 1015.7 1014.6 0.0
24/05:30am 17.7 15.0 9.1 57 4.5 NNE 13 19 7 10 1015.3 1014.1 0.0
24/05:00am 19.2 16.2 9.4 53 5.3 ENE 15 20 8 11 1014.8 1013.6 0.0
24/04:30am 19.5 16.5 9.4 52 5.4 ENE 15 26 8 14 1014.5 1013.3 0.0
24/04:00am 19.2 16.2 9.4 53 5.3 ENE 15 20 8 11 1014.4 1013.2 0.0
24/03:30am 19.5 16.2 9.7 53 5.3 ENE 17 20 9 11 1014.5 1013.3 0.0
24/03:00am 18.9 16.4 9.7 55 5.0 ENE 13 17 7 9 1014.5 1013.3 0.0
24/02:30am 19.0 16.3 8.9 52 5.4 NE 13 20 7 11 1014.4 1013.2 0.0
24/02:00am 18.4 15.5 9.5 56 4.8 ENE 15 17 8 9 1014.5 1013.3 0.0
24/01:30am 17.7 16.4 9.8 60 4.2 NNE 7 11 4 6 1014.9 1013.7 0.0
24/01:00am 18.8 17.1 9.8 56 4.9 ENE 9 13 5 7 1014.9 1013.7 0.0
24/12:30am 18.9 16.4 9.7 55 5.0 ENE 13 17 7 9 1015.1 1013.9 0.0
24/12:00am 17.5 15.3 9.4 59 4.3 ENE 11 15 6 8 1015.1 1013.9 0.0
 
Date/Time
EDT
Temp
°C
App
Temp
°C
Dew
Point
°C
Rel
Hum
%
Delta-T
°C
Wind Press
QNH
hPa
Press
MSL
hPa
Rain since
9am
mm
Dir  Spd
km/h
Gust
km/h
Spd
kts
Gust
kts
23/11:30pm 18.9 17.2 9.9 56 4.9 NE 9 11 5 6 1015.0 1013.8 0.0
23/11:00pm 19.6 17.0 9.5 52 5.4 NE 13 15 7 8 1015.0 1013.8 0.0
23/10:30pm 19.7 17.9 9.3 51 5.6 NE 9 13 5 7 1015.0 1013.8 0.0
23/10:00pm 20.9 17.6 9.5 48 6.2 ENE 17 24 9 13 1014.8 1013.6 0.0
23/09:30pm 21.2 17.9 9.4 47 6.4 ENE 17 20 9 11 1014.8 1013.6 0.0
23/09:00pm 22.1 18.7 9.3 44 7.0 NE 17 22 9 12 1014.7 1013.5 0.0
23/08:30pm 23.0 18.6 9.0 41 7.6 ENE 22 30 12 16 1013.9 1012.8 0.0
23/08:00pm 23.7 19.8 8.6 38 8.2 NE 19 30 10 16 1013.6 1012.5 0.0
23/07:30pm 24.6 20.3 7.7 34 9.1 ENE 20 24 11 13 1013.3 1012.2 0.0
23/07:00pm 25.2 21.6 8.2 34 9.2 ENE 17 22 9 12 1012.9 1011.8 0.0
23/06:30pm 26.7 22.4 7.7 30 10.3 E 20 24 11 13 1012.5 1011.3 0.0
23/06:00pm 27.5 23.7 8.9 31 10.4 E 19 26 10 14 1012.3 1011.1 0.0
23/05:30pm 27.3 23.1 8.2 30 10.5 E 20 26 11 14 1012.3 1011.1 0.0
23/05:00pm 27.3 22.5 8.7 31 10.3 E 24 30 13 16 1012.6 1011.4 0.0
23/04:30pm 25.6 19.6 7.2 31 9.8 E 28 39 15 21 1012.8 1011.6 0.0
23/04:00pm 26.2 21.6 9.5 35 9.3 ESE 24 35 13 19 1013.1 1012.0 0.0
23/03:30pm 29.8 26.7 7.1 24 12.4 WNW 13 22 7 12 1013.1 1012.0 0.0
23/03:00pm 28.3 24.5 5.8 24 11.9 NNW 15 22 8 12 1013.4 1012.3 0.0
23/02:30pm 29.5 27.5 8.5 27 11.7 W 9 17 5 9 1013.7 1012.6 0.0
23/02:00pm 27.4 23.8 8.3 30 10.5 NNW 17 26 9 14 1014.3 1013.1 0.0
23/01:30pm 26.9 23.1 7.4 29 10.5 NW 17 28 9 15 1014.8 1013.6 0.0
23/01:00pm 28.3 26.2 9.6 31 10.6 N 11 20 6 11 1015.4 1014.2 0.0
23/12:30pm 27.6 24.4 9.9 33 10.0 N 17 28 9 15 1015.8 1014.7 0.0
23/12:00pm 27.0 23.8 11.1 37 9.1 NNW 19 32 10 17 1016.2 1015.1 0.0
23/11:30am 26.1 22.1 10.3 37 8.9 N 22 33 12 18 1016.6 1015.5 0.0
23/11:00am 25.7 22.0 11.5 41 8.2 NNW 22 32 12 17 1016.8 1015.7 0.0
23/10:30am 24.8 20.7 11.4 43 7.7 NNW 24 35 13 19 1017.0 1015.9 0.0
23/10:00am 24.4 19.5 11.4 44 7.4 N 28 41 15 22 1016.8 1015.7 0.0
23/09:30am 22.6 17.0 11.4 49 6.3 N 32 41 17 22 1016.8 1015.7 0.0
23/09:00am 22.2 16.8 11.0 49 6.3 N 30 41 16 22 1016.7 1015.6 0.0
23/08:30am 20.8 15.8 10.9 53 5.5 NNE 28 37 15 20 1016.7 1015.6 0.0
23/08:00am 18.7 15.1 10.5 59 4.5 NNE 20 28 11 15 1016.6 1015.5 0.0
23/07:30am 18.9 15.4 10.2 57 4.7 NNE 19 28 10 15 1016.5 1015.4 0.0
23/07:00am 19.3 15.7 10.0 55 5.0 N 19 26 10 14 1016.2 1015.1 0.0
23/06:30am 17.5 15.4 9.9 61 4.1 ENE 11 15 6 8 1015.7 1014.6 0.0
23/06:00am 16.3 14.8 9.0 62 3.8 ENE 7 11 4 6 1015.4 1014.2 0.0
23/05:30am 16.6 13.6 9.1 61 3.9 ENE 15 20 8 11 1015.0 1013.8 0.0
23/05:00am 17.1 13.4 9.3 60 4.1 ENE 19 28 10 15 1014.8 1013.6 0.0
23/04:30am 17.3 13.6 10.0 62 3.9 ENE 20 24 11 13 1014.6 1013.4 0.0
23/04:00am 17.5 14.5 10.6 64 3.7 NE 17 20 9 11 1014.7 1013.5 0.0
23/03:30am 17.7 15.1 10.8 64 3.8 NE 15 19 8 10 1014.7 1013.5 0.0
23/03:00am 18.0 14.6 10.6 62 4.0 NE 19 24 10 13 1014.8 1013.6 0.0
23/02:30am 18.2 14.6 10.6 61 4.1 ENE 20 26 11 14 1015.0 1013.8 0.0
23/02:00am 18.4 14.9 10.8 61 4.2 ENE 20 24 11 13 1015.2 1014.0 0.0
23/01:30am 18.1 15.1 10.5 61 4.1 ENE 17 20 9 11 1015.3 1014.1 0.0
23/01:00am 18.7 15.6 10.3 58 4.6 NE 17 26 9 14 1015.4 1014.2 0.0
23/12:30am 19.6 16.5 10.3 55 5.1 NE 17 24 9 13 1015.6 1014.5 0.0
23/12:00am 18.4 15.8 9.5 56 4.8 NE 13 20 7 11 1015.7 1014.6 0.0
 
Date/Time
EDT
Temp
°C
App
Temp
°C
Dew
Point
°C
Rel
Hum
%
Delta-T
°C
Wind Press
QNH
hPa
Press
MSL
hPa
Rain since
9am
mm
Dir  Spd
km/h
Gust
km/h
Spd
kts
Gust
kts
22/11:30pm 18.6 16.4 9.4 55 4.9 ENE 11 13 6 7 1015.6 1014.5 0.0
22/11:00pm 19.9 17.4 9.8 52 5.5 ENE 13 19 7 10 1015.4 1014.2 0.0
22/10:30pm 20.4 18.9 10.5 53 5.5 NNE 9 11 5 6 1015.3 1014.1 0.0
22/10:00pm 20.6 19.4 10.4 52 5.6 NNE 7 11 4 6 1015.3 1014.1 0.0
22/09:30pm 20.4 19.7 11.9 58 4.8 ENE 7 13 4 7 1015.2 1014.0 0.0
22/09:00pm 20.5 20.7 10.6 53 5.5 CALM 0 0 0 0 1014.9 1013.7 0.0
22/08:30pm 22.2 22.3 10.0 46 6.7 CALM 0 0 0 0 1014.6 1013.4 0.0
22/08:00pm 25.3 24.4 6.0 29 10.1 CALM 0 0 0 0 1014.3 1013.1 0.0
22/07:30pm 26.9 25.7 4.6 24 11.5 CALM 0 0 0 0 1014.1 1012.9 0.0
22/07:00pm 27.4 25.9 5.1 24 11.6 NW 2 7 1 4 1014.1 1012.9 0.0
22/06:30pm 28.2 26.3 5.1 23 12.1 NNW 4 11 2 6 1013.9 1012.8 0.0
22/06:00pm 27.9 25.7 5.5 24 11.8 NNW 6 9 3 5 1013.8 1012.7 0.0
22/05:30pm 27.7 24.8 6.5 26 11.3 W 11 19 6 10 1014.1 1012.9 0.0
22/05:00pm 27.2 24.7 6.6 27 11.0 S 9 13 5 7 1014.4 1013.2 0.0
22/04:30pm 27.4 26.3 6.8 27 11.1 NNW 2 13 1 7 1014.8 1013.6 0.0
22/04:00pm 26.6 24.9 6.1 27 10.8 WNW 4 11 2 6 1015.2 1014.0 0.0
22/03:30pm 27.4 26.0 7.3 28 10.9 N 4 9 2 5 1015.5 1014.3 0.0
22/03:00pm 26.5 23.9 6.0 27 10.8 WNW 9 17 5 9 1015.9 1014.8 0.0
22/02:30pm 25.9 23.4 6.5 29 10.3 SE 9 15 5 8 1016.4 1015.3 0.0
22/02:00pm 26.5 24.6 7.5 30 10.3 E 7 19 4 10 1016.8 1015.7 0.0
22/01:30pm 26.0 24.7 7.6 31 9.9 S 4 9 2 5 1017.5 1016.3 0.0
22/01:00pm 24.5 22.0 6.7 32 9.4 WNW 9 15 5 8 1018.0 1016.8 0.0
22/12:30pm 26.0 23.2 8.5 33 9.6 NNW 13 20 7 11 1018.3 1017.2 0.0
22/12:00pm 24.0 21.1 6.7 33 9.1 NE 11 15 6 8 1018.6 1017.5 0.0
22/11:30am 24.7 21.4 8.2 35 8.9 NNE 15 43 8 23 1019.0 1017.9 0.0
22/11:00am 24.9 22.6 10.4 40 8.1 NNE 13 22 7 12 1019.2 1018.1 0.0
22/10:30am 23.1 19.3 9.1 41 7.6 NNE 19 30 10 16 1019.4 1018.3 0.0
22/10:00am 22.9 18.6 9.3 42 7.4 NNE 22 30 12 16 1019.6 1018.5 0.0
22/09:30am 22.0 17.8 9.9 46 6.7 NE 22 32 12 17 1019.7 1018.6 0.0
22/09:00am 21.4 16.8 9.6 47 6.4 NE 24 35 13 19 1019.8 1018.7 0.0
22/08:30am 21.2 17.6 10.4 50 6.0 NE 20 30 11 16 1019.9 1018.8 0.0
22/08:00am 19.5 15.9 10.5 56 4.9 NE 20 30 11 16 1019.9 1018.8 0.0
22/07:30am 18.2 14.8 10.6 61 4.1 NE 19 22 10 12 1019.6 1018.5 0.0
22/07:00am 16.8 13.7 10.2 65 3.5 ENE 17 22 9 12 1019.5 1018.4 0.0
22/06:30am 15.6 13.1 9.7 68 3.1 NE 13 20 7 11 1019.4 1018.3 0.0
22/06:00am 14.7 11.4 9.5 71 2.7 NE 17 20 9 11 1019.1 1018.0 0.0
22/05:30am 14.9 11.6 9.5 70 2.8 NE 17 20 9 11 1018.7 1017.6 0.0
22/05:00am 15.5 12.2 9.6 68 3.1 NE 17 24 9 13 1018.6 1017.5 0.0
22/04:30am 15.5 12.2 9.4 67 3.2 ENE 17 22 9 12 1018.4 1017.3 0.0
22/04:00am 16.1 12.8 9.5 65 3.5 NE 17 24 9 13 1018.3 1017.2 0.0
22/03:30am 16.1 13.2 9.5 65 3.5 NE 15 22 8 12 1018.3 1017.2 0.0
22/03:00am 16.1 13.2 9.5 65 3.5 NE 15 19 8 10 1018.2 1017.0 0.0
22/02:30am 16.9 12.7 9.6 62 3.9 ENE 22 30 12 16 1018.3 1017.2 0.0
22/02:00am 17.7 13.1 9.6 59 4.3 NE 24 35 13 19 1018.4 1017.3 0.0
22/01:30am 18.1 12.8 9.7 58 4.5 ENE 28 37 15 20 1018.6 1017.5 0.0
22/01:00am 18.6 14.7 9.4 55 4.9 NE 20 32 11 17 1018.7 1017.6 0.0
22/12:30am 19.2 14.4 8.8 51 5.5 ENE 24 33 13 18 1018.9 1017.8 0.0
22/12:00am 19.6 15.3 7.7 46 6.2 ENE 20 32 11 17 1019.0 1017.9 0.0
 
Date/Time
EDT
Temp
°C
App
Temp
°C
Dew
Point
°C
Rel
Hum
%
Delta-T
°C
Wind Press
QNH
hPa
Press
MSL
hPa
Rain since
9am
mm
Dir  Spd
km/h
Gust
km/h
Spd
kts
Gust
kts
21/11:30pm 20.3 15.1 7.3 43 6.7 ENE 24 33 13 18 1018.8 1017.7 0.0
21/11:00pm 20.4 16.2 7.4 43 6.8 ENE 19 26 10 14 1018.9 1017.8 0.0
21/10:30pm 18.9 15.1 7.7 48 5.8 ENE 17 19 9 10 1018.9 1017.8 0.0
21/10:00pm 21.1 17.4 6.2 38 7.6 ENE 15 20 8 11 1018.8 1017.7 0.0
21/09:30pm 21.3 17.5 7.5 41 7.2 ENE 17 22 9 12 1018.5 1017.4 0.0
21/09:00pm 21.0 17.4 8.3 44 6.7 E 17 19 9 10 1018.1 1016.9 0.0
21/08:30pm 21.5 18.1 7.7 41 7.3 E 15 19 8 10 1017.8 1016.6 0.0
21/08:00pm 22.6 20.2 7.2 37 8.1 ENE 9 11 5 6 1017.6 1016.4 0.0
21/07:30pm 25.2 22.3 6.4 30 9.9 E 11 13 6 7 1017.3 1016.1 0.0
21/07:00pm 26.7 24.2 6.7 28 10.7 ENE 9 13 5 7 1017.0 1015.9 0.0
21/06:30pm 27.3 23.2 4.4 23 11.8 E 15 22 8 12 1016.9 1015.8 0.0
21/06:00pm 28.1 25.2 4.4 22 12.2 ENE 9 17 5 9 1017.0 1015.9 0.0
21/05:30pm 28.1 23.5 3.7 21 12.5 ENE 17 28 9 15 1017.0 1015.9 0.0
21/05:00pm 29.1 25.3 3.9 20 13.0 NNE 13 22 7 12 1017.4 1016.2 0.0
21/04:30pm 28.3 23.6 3.2 20 12.7 ESE 17 26 9 14 1017.8 1016.6 0.0
21/04:00pm 28.0 23.9 2.2 19 12.8 SE 13 22 7 12 1017.9 1016.7 0.0
21/03:30pm 27.7 24.4 4.7 23 11.9 SW 11 17 6 9 1018.3 1017.2 0.0
21/03:00pm 26.0 22.8 5.0 26 10.8 SE 11 19 6 10 1018.8 1017.7 0.0
21/02:30pm 27.2 24.8 8.6 31 10.3 SSE 11 19 6 10 1019.4 1018.3 0.0
21/02:00pm 26.4 23.1 6.4 28 10.6 NE 13 22 7 12 1019.9 1018.8 0.0
21/01:30pm 26.1 23.4 7.2 30 10.1 ESE 11 19 6 10 1020.4 1019.3 0.0
21/01:00pm 25.8 24.1 7.4 31 9.9 E 6 17 3 9 1021.0 1019.8 0.0
21/12:30pm 25.3 22.2 7.4 32 9.6 E 13 19 7 10 1021.4 1020.3 0.0
21/12:00pm 24.4 22.8 8.0 35 8.8 SSW 6 11 3 6 1021.9 1020.8 0.0
21/11:30am 23.9 22.0 7.5 35 8.7 E 7 15 4 8 1022.3 1021.2 0.0
21/11:00am 23.9 22.1 9.5 40 7.9 E 9 20 5 11 1022.6 1021.5 0.0
21/10:30am 22.9 20.9 8.6 40 7.7 E 9 19 5 10 1022.7 1021.6 0.0
21/10:00am 22.6 19.3 9.7 44 7.1 ENE 17 26 9 14 1022.8 1021.7 0.0
21/09:30am 22.1 18.5 9.9 46 6.7 E 19 28 10 15 1022.9 1021.8 0.0

Other Formats:

Comma delimited format used in spreadsheet applications
http://www.bom.gov.au/fwo/IDN60801/IDN60801.95717.axf

JavaScript Object Notation format (JSON) in row-major order
http://www.bom.gov.au/fwo/IDN60801/IDN60801.95717.json